»·PEaware :: N2RF KEGE-KAPA

N2RF :: KEGE-KAPA

FLIGHT INFORMATION

Flight Status: Arrived
Operator: Privately registered:
United States
More flights under this callsign
Pilot: Max W. (2591)
Aircraft: SOCATA TBM-900
(TBM9)
More flights by this aircraft type
Origin: KEGE Eagle Co Regl
United States
Destination: KAPA Centennial
United States
More flights between these airports :: More routes between these airports
Route: +BEVVR1 BELGN TOMSN TOMSN7
File this flight plan on PilotEdge
Remarks: STUDENT PILOT BE NICE IF POSSIBLE ONLY HAVE 1 STRIKE LEFT
Altitude:
(Current/Filed)
20,000ft
Speed:
(Current/Filed)
450kts
Departed: 11-Jan-19 07:38 PM
Arrived: 11-Jan-19 08:21 PM
Distance/Time
Traveled:
96nm/0:43
Distance/Time
To Go:
Arrived

Flight Plot

Page will automatically refresh every two minutes.

Flight plan parsing failed; only flown route is shown


Map Options




Map Legend


Flown Route
Filed Route
Departure Airport
Arrival Airport
Navaid (VOR, NDB)
Fix

Horizontal Profiles

Position Reports

Time Latitude Longitude Heading Altitude Ground
Speed
11-Jan-19 19:22 39.641919 -106.906644 348 6444ft 0kts
11-Jan-19 19:23 39.641919 -106.906644 348 6444ft 0kts
11-Jan-19 19:24 39.641919 -106.906644 348 6444ft 0kts
11-Jan-19 19:25 39.641919 -106.906644 348 6444ft 0kts
11-Jan-19 19:26 39.641919 -106.906644 348 6444ft 0kts
11-Jan-19 19:27 39.641919 -106.906644 348 6444ft 0kts
11-Jan-19 19:28 39.641919 -106.906644 348 6444ft 0kts
11-Jan-19 19:29 39.641919 -106.906644 348 6444ft 0kts
11-Jan-19 19:30 39.641919 -106.906644 348 6444ft 0kts
11-Jan-19 19:31 39.641919 -106.906644 348 6444ft 0kts
11-Jan-19 19:32 39.641995 -106.906390 80 6444ft 9kts
11-Jan-19 19:33 39.643258 -106.902095 83 6444ft 8kts
11-Jan-19 19:34 39.643640 -106.901881 325 6444ft 0kts
11-Jan-19 19:35 39.643640 -106.901881 325 6444ft 0kts
11-Jan-19 19:36 39.643640 -106.901880 325 6444ft 0kts
11-Jan-19 19:37 39.643443 -106.911443 265 6540ft 116kts
11-Jan-19 19:38 39.617727 -106.950590 216 8266ft 185kts
11-Jan-19 19:39 39.579602 -106.996931 270 10231ft 196kts
11-Jan-19 19:40 39.587737 -107.070325 319 11758ft 203kts
11-Jan-19 19:41 39.632566 -107.091249 53 13306ft 200kts
11-Jan-19 19:42 39.650179 -107.021498 58 14568ft 207kts
11-Jan-19 19:43 39.678615 -106.956030 55 15580ft 216kts
11-Jan-19 19:44 39.708947 -106.889411 55 16527ft 226kts
11-Jan-19 19:45 39.741149 -106.818766 56 18193ft 234kts
11-Jan-19 19:46 39.774557 -106.745285 56 19811ft 241kts
11-Jan-19 19:47 39.808685 -106.670095 56 21007ft 255kts
11-Jan-19 19:48 39.846522 -106.586560 56 21006ft 285kts
11-Jan-19 19:49 39.886458 -106.498085 56 20995ft 292kts
11-Jan-19 19:50 39.927587 -106.406713 56 20984ft 294kts
11-Jan-19 19:51 39.967129 -106.318625 57 20972ft 294kts
11-Jan-19 19:52 40.008530 -106.226131 57 20970ft 294kts
11-Jan-19 19:53 40.049138 -106.135134 57 20971ft 294kts
11-Jan-19 19:54 40.089952 -106.043402 57 20971ft 294kts
11-Jan-19 19:55 40.127816 -105.958054 57 20973ft 294kts
11-Jan-19 19:56 40.147809 -105.860821 117 20522ft 315kts
11-Jan-19 19:57 40.111507 -105.757121 109 19600ft 318kts
11-Jan-19 19:58 40.081382 -105.650712 108 18624ft 316kts
11-Jan-19 19:59 40.051474 -105.545999 108 17658ft 314kts
11-Jan-19 20:00 40.021826 -105.442602 108 16667ft 301kts
11-Jan-19 20:01 39.994877 -105.347952 109 15741ft 298kts
11-Jan-19 20:02 39.966108 -105.247276 109 15041ft 290kts
11-Jan-19 20:03 39.938529 -105.151119 109 15049ft 278kts
11-Jan-19 20:04 39.911231 -105.056345 108 15043ft 277kts
11-Jan-19 20:05 39.883257 -104.969874 131 14987ft 284kts
11-Jan-19 20:06 39.807067 -104.942362 167 15000ft 289kts
11-Jan-19 20:07 39.727363 -104.922197 167 14995ft 289kts
11-Jan-19 20:08 39.647584 -104.902424 169 14990ft 290kts
11-Jan-19 20:09 39.566107 -104.899046 177 14991ft 292kts
11-Jan-19 20:10 39.480399 -104.896883 177 13014ft 310kts
11-Jan-19 20:11 39.394754 -104.896343 177 10498ft 304kts
11-Jan-19 20:12 39.311874 -104.894853 176 8981ft 280kts
11-Jan-19 20:13 39.292377 -104.830815 28 8969ft 224kts
11-Jan-19 20:14 39.350532 -104.840752 355 8999ft 216kts
11-Jan-19 20:15 39.408092 -104.842561 359 8928ft 181kts
11-Jan-19 20:16 39.451207 -104.845198 0 8105ft 132kts
11-Jan-19 20:17 39.485766 -104.846431 356 7351ft 97kts
11-Jan-19 20:18 39.512761 -104.848068 1 6802ft 101kts
11-Jan-19 20:19 39.540031 -104.849346 357 6261ft 88kts
11-Jan-19 20:20 39.560794 -104.849987 69 5884ft 20kts
11-Jan-19 20:21 39.560828 -104.847214 158 5884ft 0kts
11-Jan-19 20:22 39.560828 -104.847214 158 5884ft 0kts
11-Jan-19 20:23 39.560828 -104.847214 158 5884ft 0kts
11-Jan-19 20:24 39.560828 -104.847214 161 5884ft 0kts
11-Jan-19 20:25 39.560828 -104.847214 161 5884ft 0kts
11-Jan-19 20:26 39.560828 -104.847214 161 5884ft 0kts
11-Jan-19 20:27 39.560828 -104.847214 161 5884ft 0kts

Navigation Log

Ident Type
Flight plan parsing failed, navigation log unavailable